Time;durP1;ratioP1;P1;durP2;ratioP2;P2;SDS_P1;SDS_P2;PMS_P1;PMS_P2;Temp;Humidity;BMP_temperature;BMP_pressure;BME280_temperature;BME280_humidity;BME280_pressure;Samples;Min_cycle;Max_cycle;Signal;HPM_P1;HPM_P2
2024/04/03 00:01:22;;;;;;;8.60;2.00;;;;;;;9.27;100.00;99240.86;213319;1298;140140;-83
2024/04/03 00:06:22;;;;;;;6.10;2.60;;;;;;;9.21;100.00;99244.73;213195;1297;138766;-84
2024/04/03 00:11:26;;;;;;;6.60;1.90;;;;;;;9.15;100.00;99241.75;213115;1295;139532;-85
2024/04/03 00:16:26;;;;;;;4.40;2.00;;;;;;;9.11;100.00;99239.17;213467;1297;138437;-84
2024/04/03 00:21:27;;;;;;;5.40;2.00;;;;;;;9.08;100.00;99238.48;213079;1297;139003;-84
2024/04/03 00:26:27;;;;;;;2.70;1.70;;;;;;;9.08;100.00;99234.48;213455;1297;187222;-85
2024/04/03 00:31:28;;;;;;;5.50;2.30;;;;;;;9.09;100.00;99227.89;212992;1297;139356;-85
2024/04/03 00:36:28;;;;;;;6.80;1.90;;;;;;;9.10;100.00;99228.81;213559;1297;138841;-85
2024/04/03 00:41:29;;;;;;;6.30;1.90;;;;;;;9.07;100.00;99228.35;213024;1297;139297;-85
2024/04/03 00:46:30;;;;;;;5.50;2.30;;;;;;;9.05;100.00;99235.81;213533;1298;138458;-86
2024/04/03 00:51:31;;;;;;;4.60;2.40;;;;;;;9.03;100.00;99229.62;213255;1300;139133;-85
2024/04/03 00:56:31;;;;;;;4.20;2.50;;;;;;;9.01;100.00;99228.23;213587;1299;138579;-84
2024/04/03 01:01:32;;;;;;;2.90;2.10;;;;;;;8.99;100.00;99223.98;213071;1296;139033;-84
2024/04/03 01:06:32;;;;;;;4.30;2.40;;;;;;;8.98;100.00;99215.05;213444;1296;138633;-85
2024/04/03 01:11:33;;;;;;;3.00;1.80;;;;;;;8.96;100.00;99214.27;212949;1297;139339;-85
2024/04/03 01:16:34;;;;;;;3.90;2.00;;;;;;;8.96;100.00;99214.82;213633;1296;138328;-85
2024/04/03 01:21:35;;;;;;;4.30;2.00;;;;;;;8.97;100.00;99219.36;212921;1298;139547;-82
2024/04/03 01:26:35;;;;;;;4.20;2.10;;;;;;;8.99;100.00;99222.27;213382;1296;138462;-85
2024/04/03 01:31:36;;;;;;;6.00;2.00;;;;;;;9.00;100.00;99216.92;213078;1299;139050;-85
2024/04/03 01:36:37;;;;;;;3.70;2.00;;;;;;;9.02;100.00;99215.11;213420;1296;138845;-83
2024/04/03 01:41:37;;;;;;;3.60;2.10;;;;;;;9.04;100.00;99207.98;212957;1300;139022;-84
2024/04/03 01:46:38;;;;;;;6.50;2.40;;;;;;;9.07;100.00;99206.88;213901;1298;138578;-85
2024/04/03 01:51:38;;;;;;;6.30;2.60;;;;;;;9.10;100.00;99199.58;212988;1298;140074;-86
2024/04/03 01:56:38;;;;;;;6.00;2.30;;;;;;;9.12;100.00;99194.55;213506;1300;138705;-84
2024/04/03 02:01:39;;;;;;;5.70;3.10;;;;;;;9.14;100.00;99198.77;213135;1300;139067;-84
2024/04/03 02:06:40;;;;;;;4.80;2.70;;;;;;;9.16;100.00;99201.84;213635;1300;138192;-84
2024/04/03 02:11:40;;;;;;;6.10;2.80;;;;;;;9.16;100.00;99202.23;213017;1300;139529;-85
2024/04/03 02:16:43;;;;;;;6.70;3.90;;;;;;;9.16;100.00;99201.28;213229;1295;138409;-84
2024/04/03 02:21:44;;;;;;;6.30;3.30;;;;;;;9.15;100.00;99198.06;212665;1297;139705;-85
2024/04/03 02:26:44;;;;;;;5.70;3.60;;;;;;;9.16;100.00;99195.48;213440;1295;138443;-85
2024/04/03 02:31:45;;;;;;;6.50;2.90;;;;;;;9.17;100.00;99186.39;213117;1297;139344;-85
2024/04/03 02:36:46;;;;;;;6.60;3.10;;;;;;;9.18;100.00;99188.49;213616;1300;138320;-83
2024/04/03 02:41:46;;;;;;;7.80;4.20;;;;;;;9.19;100.00;99181.75;213605;1296;138855;-84
2024/04/03 02:46:47;;;;;;;3.10;2.20;;;;;;;9.19;100.00;99184.26;213657;1298;138391;-84
2024/04/03 02:51:48;;;;;;;6.90;4.70;;;;;;;9.19;100.00;99172.96;213128;1298;139990;-85
2024/04/03 02:56:48;;;;;;;4.60;3.10;;;;;;;9.17;100.00;99172.81;213523;1300;138567;-85
2024/04/03 03:01:51;;;;;;;5.80;3.30;;;;;;;9.15;100.00;99175.80;213172;1298;141048;-85
2024/04/03 03:06:52;;;;;;;6.60;3.10;;;;;;;9.13;100.00;99169.15;213572;1296;138284;-83
2024/04/03 03:11:53;;;;;;;7.00;5.60;;;;;;;9.12;100.00;99162.88;213152;1295;140336;-88
2024/04/03 03:16:53;;;;;;;7.40;3.50;;;;;;;9.12;100.00;99169.54;213607;1299;138440;-84
2024/04/03 03:21:53;;;;;;;5.50;3.20;;;;;;;9.13;100.00;99166.16;213190;1300;140788;-85
2024/04/03 03:26:54;;;;;;;6.30;3.40;;;;;;;9.13;100.00;99165.14;213716;1300;140126;-85
2024/04/03 03:31:54;;;;;;;5.10;3.10;;;;;;;9.14;100.00;99166.71;213450;1295;139813;-86
2024/04/03 03:36:55;;;;;;;9.60;3.40;;;;;;;9.13;100.00;99167.27;214060;1298;138502;-86
2024/04/03 03:41:56;;;;;;;6.00;2.70;;;;;;;9.13;100.00;99163.89;212827;1300;139625;-86
2024/04/03 03:46:56;;;;;;;5.90;3.20;;;;;;;9.13;100.00;99168.60;213762;1296;138365;-83
2024/04/03 03:57:16;;;;;;;10.80;3.70;;;;;;;9.10;100.00;99175.43;213409;1299;138594;-86
2024/04/03 04:02:18;;;;;;;7.00;4.20;;;;;;;9.05;100.00;99182.96;213075;1295;140140;-86
2024/04/03 04:07:20;;;;;;;6.50;3.40;;;;;;;9.03;100.00;99180.23;213524;1298;100697;-83
2024/04/03 04:12:21;;;;;;;7.40;3.80;;;;;;;9.01;100.00;99175.14;212846;1298;139655;-87
2024/04/03 04:17:22;;;;;;;7.00;4.30;;;;;;;9.00;100.00;99175.70;213433;1297;138597;-86
2024/04/03 04:22:22;;;;;;;9.60;4.30;;;;;;;9.00;100.00;99178.59;212635;1295;139634;-84
2024/04/03 04:27:25;;;;;;;6.40;4.10;;;;;;;8.98;100.00;99189.81;213661;1298;138697;-84
2024/04/03 04:32:26;;;;;;;7.90;4.70;;;;;;;8.97;100.00;99186.13;213121;1296;139925;-85
2024/04/03 04:37:26;;;;;;;6.90;4.10;;;;;;;8.93;100.00;99177.59;213601;1300;99089;-85
2024/04/03 04:42:27;;;;;;;8.80;4.60;;;;;;;8.88;100.00;99175.64;212940;1298;139087;-86
2024/04/03 04:47:27;;;;;;;9.80;5.80;;;;;;;8.86;100.00;99178.15;213378;1296;138732;-86
2024/04/03 04:52:28;;;;;;;9.60;5.50;;;;;;;8.85;100.00;99181.84;212951;1296;139479;-86
2024/04/03 04:57:29;;;;;;;12.70;6.30;;;;;;;8.85;100.00;99185.53;213358;1298;139109;-84
2024/04/03 05:02:30;;;;;;;12.50;6.10;;;;;;;8.83;100.00;99186.23;213082;1296;139845;-87
2024/04/03 05:07:30;;;;;;;11.00;6.10;;;;;;;8.81;100.00;99186.94;213623;1295;99381;-87
2024/04/03 05:12:31;;;;;;;13.30;6.90;;;;;;;8.82;100.00;99188.83;213071;1297;139503;-86
2024/04/03 05:17:31;;;;;;;14.00;7.60;;;;;;;8.84;100.00;99192.58;213661;1298;138773;-85
2024/04/03 05:22:31;;;;;;;11.60;6.70;;;;;;;8.85;100.00;99192.51;213494;1298;139732;-85
2024/04/03 05:27:32;;;;;;;11.70;6.50;;;;;;;8.87;100.00;99202.93;213588;1296;138815;-86
2024/04/03 05:32:32;;;;;;;10.90;6.60;;;;;;;8.90;100.00;99204.80;213117;1297;139802;-84
2024/04/03 05:37:33;;;;;;;15.80;7.50;;;;;;;8.92;100.00;99201.96;213505;1297;105332;-85
2024/04/03 05:42:33;;;;;;;13.20;8.70;;;;;;;8.94;100.00;99200.33;212994;1296;139805;-83
2024/04/03 05:47:35;;;;;;;11.50;7.70;;;;;;;8.96;100.00;99204.94;213536;1300;139059;-81
2024/04/03 05:52:36;;;;;;;10.00;6.30;;;;;;;8.98;100.00;99198.04;213041;1295;139164;-82
2024/04/03 05:57:36;;;;;;;9.90;7.20;;;;;;;9.03;100.00;99195.29;213539;1296;138885;-81
2024/04/03 06:02:37;;;;;;;11.90;7.40;;;;;;;9.09;100.00;99198.00;213018;1297;139387;-82
2024/04/03 06:07:38;;;;;;;8.40;5.70;;;;;;;9.14;100.00;99196.82;213778;1296;99325;-80
2024/04/03 06:12:39;;;;;;;9.10;6.20;;;;;;;9.18;100.00;99204.25;214375;1296;140107;-79
2024/04/03 06:17:40;;;;;;;10.80;5.90;;;;;;;9.20;100.00;99204.09;214757;1299;138356;-82
2024/04/03 06:22:40;;;;;;;14.40;10.30;;;;;;;9.22;100.00;99205.82;214139;1296;139275;-82
2024/04/03 06:27:41;;;;;;;9.50;7.40;;;;;;;9.24;100.00;99214.35;215292;1297;139014;-82
2024/04/03 06:32:42;;;;;;;10.20;4.40;;;;;;;9.25;100.00;99237.18;214691;1295;138952;-80
2024/04/03 06:37:42;;;;;;;3.80;2.70;;;;;;;9.15;100.00;99249.13;214877;1295;99113;-82
2024/04/03 06:42:43;;;;;;;4.10;2.30;;;;;;;8.90;100.00;99253.02;213319;1296;138890;-82
2024/04/03 06:47:47;;;;;;;4.10;2.90;;;;;;;8.80;100.00;99258.58;213449;1300;139215;-82
2024/04/03 06:52:48;;;;;;;4.20;2.50;;;;;;;8.79;100.00;99274.10;212884;1297;139491;-82
2024/04/03 06:57:48;;;;;;;11.50;4.30;;;;;;;8.74;100.00;99282.16;213480;1296;139306;-81
2024/04/03 07:02:49;;;;;;;8.80;4.50;;;;;;;8.69;100.00;99294.71;212820;1298;140030;-81
2024/04/03 07:07:50;;;;;;;12.40;5.50;;;;;;;8.61;100.00;99296.66;212900;1296;99348;-81
2024/04/03 07:12:50;;;;;;;9.10;4.90;;;;;;;8.56;100.00;99305.59;212761;1300;139339;-81
2024/04/03 07:17:51;;;;;;;10.20;4.90;;;;;;;8.56;100.00;99307.39;212725;1297;138440;-82
2024/04/03 07:22:58;;;;;;;12.80;6.70;;;;;;;8.58;100.00;99317.19;215376;1295;140044;-82
2024/04/03 07:28:11;;;;;;;12.40;6.80;;;;;;;8.63;100.00;99315.79;213023;1299;139301;-82
2024/04/03 07:33:12;;;;;;;10.40;6.10;;;;;;;8.61;100.00;99328.01;211808;1297;140475;-81
2024/04/03 07:38:13;;;;;;;9.80;5.30;;;;;;;8.57;100.00;99330.75;212242;1297;138672;-82
2024/04/03 07:43:13;;;;;;;11.70;5.40;;;;;;;8.59;100.00;99339.99;212194;1298;139817;-81
2024/04/03 07:48:14;;;;;;;10.70;6.00;;;;;;;8.62;100.00;99354.41;212574;1297;139190;-81
2024/04/03 07:53:14;;;;;;;13.40;6.10;;;;;;;8.62;100.00;99356.84;211868;1296;139479;-81
2024/04/03 07:58:15;;;;;;;11.40;6.30;;;;;;;8.71;100.00;99357.09;212362;1296;138877;-81
2024/04/03 08:03:15;;;;;;;10.70;5.80;;;;;;;8.84;100.00;99364.55;212076;1296;139540;-81
2024/04/03 08:08:16;;;;;;;10.50;5.50;;;;;;;8.95;100.00;99372.70;212792;1297;138794;-81
2024/04/03 08:13:16;;;;;;;11.10;5.70;;;;;;;9.05;100.00;99378.20;212574;1298;139420;-81
2024/04/03 08:18:16;;;;;;;15.00;7.10;;;;;;;9.12;100.00;99388.25;212746;1297;138925;-82
2024/04/03 08:23:17;;;;;;;11.50;5.40;;;;;;;9.21;100.00;99395.52;212136;1300;139278;-82
2024/04/03 08:28:17;;;;;;;9.20;6.10;;;;;;;9.35;100.00;99404.00;212436;1295;138759;-82
2024/04/03 08:33:18;;;;;;;11.50;6.20;;;;;;;9.53;100.00;99410.82;212097;1295;140082;-81
2024/04/03 08:38:18;;;;;;;13.20;8.40;;;;;;;9.61;100.00;99413.48;212355;1297;139339;-82
2024/04/03 08:43:19;;;;;;;8.80;5.40;;;;;;;9.58;100.00;99425.17;211882;1297;139461;-83
2024/04/03 08:48:21;;;;;;;8.00;4.90;;;;;;;9.53;100.00;99442.04;212401;1297;139212;-83
2024/04/03 08:53:24;;;;;;;7.80;3.90;;;;;;;9.47;100.00;99453.19;211955;1298;140158;-84
2024/04/03 08:58:25;;;;;;;6.80;4.00;;;;;;;9.38;100.00;99463.70;213169;1297;138685;-84
2024/04/03 09:03:26;;;;;;;7.10;4.30;;;;;;;9.35;100.00;99473.52;211815;1300;139625;-84
2024/04/03 09:08:27;;;;;;;6.90;3.40;;;;;;;9.36;100.00;99470.45;212388;1296;139220;-81
2024/04/03 09:13:27;;;;;;;5.30;3.10;;;;;;;9.42;100.00;99488.73;211962;1296;139629;-84
2024/04/03 09:18:29;;;;;;;6.50;3.50;;;;;;;9.54;100.00;99491.56;212291;1296;138541;-81
2024/04/03 09:23:33;;;;;;;7.50;4.00;;;;;;;9.53;100.00;99511.41;211799;1296;140360;-84
2024/04/03 09:28:33;;;;;;;11.10;5.50;;;;;;;9.51;100.00;99530.02;212425;1297;139114;-85
2024/04/03 09:33:35;;;;;;;4.30;2.80;;;;;;;9.57;100.00;99539.59;211876;1300;140305;-84
2024/04/03 09:38:36;;;;;;;5.70;2.80;;;;;;;9.53;100.00;99547.75;212325;1297;138868;-83
2024/04/03 09:43:38;;;;;;;6.40;3.40;;;;;;;9.56;100.00;99554.34;211994;1296;140612;-87
2024/04/03 09:48:40;;;;;;;4.60;2.90;;;;;;;9.92;100.00;99549.90;212306;1297;138459;-84
2024/04/03 09:53:41;;;;;;;6.20;3.90;;;;;;;10.35;100.00;99558.42;212680;1297;139672;-84
2024/04/03 09:58:43;;;;;;;4.20;3.30;;;;;;;10.81;100.00;99560.33;212494;1296;139614;-82
2024/04/03 10:03:43;;;;;;;5.30;3.60;;;;;;;11.31;99.70;99571.34;211946;1295;140229;-83
2024/04/03 10:08:45;;;;;;;4.40;3.10;;;;;;;11.61;99.45;99576.06;212418;1296;138818;-84
2024/04/03 10:13:46;;;;;;;5.40;3.10;;;;;;;11.64;97.72;99585.33;211931;1299;139813;-82
2024/04/03 10:18:51;;;;;;;6.00;5.10;;;;;;;11.64;99.16;99588.56;212372;1296;138797;-82
2024/04/03 10:23:55;;;;;;;6.40;3.00;;;;;;;11.75;97.38;99603.36;211899;1300;139190;-81
2024/04/03 10:29:02;;;;;;;9.10;7.60;;;;;;;11.70;98.44;99603.88;212240;1297;138956;-81
2024/04/03 10:34:03;;;;;;;4.10;2.60;;;;;;;11.90;98.57;99606.65;212100;1298;242283;-82
2024/04/03 10:39:05;;;;;;;5.10;3.20;;;;;;;11.97;98.14;99610.70;211794;1297;140034;-80
2024/04/03 10:44:12;;;;;;;4.40;2.70;;;;;;;12.09;94.14;99618.48;212515;1298;100665;-80
2024/04/03 10:49:13;;;;;;;5.20;2.90;;;;;;;11.90;93.05;99626.74;212564;1296;140778;-81
2024/04/03 10:54:15;;;;;;;4.60;2.90;;;;;;;11.93;93.58;99629.08;212339;1296;139315;-81
2024/04/03 10:59:16;;;;;;;5.70;3.00;;;;;;;12.11;93.75;99638.00;211771;1297;140405;-82
2024/04/03 11:04:17;;;;;;;4.90;2.70;;;;;;;12.42;91.65;99640.27;212323;1300;139785;-81
2024/04/03 11:09:17;;;;;;;4.20;2.20;;;;;;;12.78;91.27;99642.91;211936;1297;139586;-80
2024/04/03 11:14:25;;;;;;;3.90;2.20;;;;;;;13.21;89.91;99644.51;212392;1297;139017;-83
2024/04/03 11:19:25;;;;;;;3.10;1.80;;;;;;;13.72;86.35;99648.97;212123;1296;140280;-81
2024/04/03 11:24:26;;;;;;;3.50;2.20;;;;;;;14.14;84.96;99658.70;212479;1297;138602;-79
2024/04/03 11:29:30;;;;;;;2.70;1.90;;;;;;;14.47;83.00;99656.44;211969;1296;140532;-80
2024/04/03 11:34:30;;;;;;;4.10;2.50;;;;;;;14.67;81.42;99646.84;212513;1297;139455;-80
2024/04/03 11:39:31;;;;;;;4.40;2.10;;;;;;;14.74;80.41;99654.38;211716;1296;141362;-81
2024/04/03 11:44:32;;;;;;;4.90;2.30;;;;;;;14.88;79.55;99659.42;213017;1296;139029;-81
2024/04/03 11:49:32;;;;;;;6.30;2.70;;;;;;;14.91;79.14;99666.09;211966;1297;140625;-82
2024/04/03 11:54:33;;;;;;;3.90;2.40;;;;;;;15.11;80.15;99668.57;212363;1297;138675;-81
2024/04/03 11:59:33;;;;;;;4.50;2.90;;;;;;;15.24;77.76;99670.38;211818;1297;139852;-81
2024/04/03 12:04:34;;;;;;;3.20;2.60;;;;;;;14.97;74.97;99680.23;212470;1297;138800;-81
2024/04/03 12:09:34;;;;;;;3.40;2.10;;;;;;;14.72;75.42;99685.90;211991;1296;139989;-81
2024/04/03 12:14:35;;;;;;;3.70;2.10;;;;;;;14.61;76.48;99693.54;212387;1297;138709;-81
2024/04/03 12:19:52;;;;;;;3.00;2.30;;;;;;;14.60;77.07;99696.08;212075;1297;141110;-81
2024/04/03 12:24:52;;;;;;;3.30;1.90;;;;;;;14.68;75.61;99696.98;212131;1298;291333;-81
2024/04/03 12:29:53;;;;;;;3.30;2.20;;;;;;;14.49;76.03;99695.02;211792;1300;140882;-80
2024/04/03 12:34:53;;;;;;;3.00;2.10;;;;;;;14.37;75.76;99690.15;212349;1300;138551;-81
2024/04/03 12:39:54;;;;;;;4.50;2.30;;;;;;;14.29;75.47;99690.98;212336;1297;139710;-80
2024/04/03 12:44:54;;;;;;;5.10;2.50;;;;;;;14.29;76.30;99695.50;212213;1297;138039;-82
2024/04/03 12:49:54;;;;;;;3.80;2.50;;;;;;;14.26;76.36;99698.23;211962;1297;139766;-80
2024/04/03 12:54:55;;;;;;;3.00;2.30;;;;;;;14.43;78.22;99702.63;212444;1300;138227;-80
2024/04/03 12:59:56;;;;;;;5.70;2.10;;;;;;;14.44;74.56;99700.56;211796;1299;139464;-80
2024/04/03 13:04:56;;;;;;;4.40;2.70;;;;;;;14.23;76.54;99702.94;212336;1296;138011;-80
2024/04/03 13:09:57;;;;;;;4.60;2.40;;;;;;;14.33;76.62;99711.02;211851;1295;139552;-80
2024/04/03 13:14:57;;;;;;;4.30;2.40;;;;;;;14.24;76.10;99711.70;212459;1297;138002;-80
2024/04/03 13:19:58;;;;;;;4.20;2.90;;;;;;;14.30;77.24;99720.54;212075;1297;141849;-81
2024/04/03 13:24:59;;;;;;;3.80;2.30;;;;;;;14.29;77.01;99718.75;212506;1296;138188;-81
2024/04/03 13:30:00;;;;;;;4.00;2.20;;;;;;;14.28;75.41;99719.06;211840;1296;139495;-81
2024/04/03 13:35:00;;;;;;;4.10;2.40;;;;;;;14.04;77.02;99718.52;212791;1296;138221;-80
2024/04/03 13:40:01;;;;;;;4.20;2.20;;;;;;;14.04;76.69;99723.37;211957;1297;141155;-80
2024/04/03 13:45:01;;;;;;;4.00;1.90;;;;;;;14.00;76.44;99723.95;212333;1295;138219;-80
2024/04/03 13:50:04;;;;;;;4.80;2.40;;;;;;;13.89;76.20;99725.22;212218;1300;139539;-81
2024/04/03 13:55:05;;;;;;;3.90;2.30;;;;;;;13.88;78.10;99729.42;213326;1297;137683;-80
2024/04/03 14:00:09;;;;;;;3.50;2.20;;;;;;;13.80;75.79;99737.67;213108;1300;140319;-81
2024/04/03 14:05:10;;;;;;;5.20;2.20;;;;;;;13.65;77.36;99743.79;213587;1297;138106;-81
2024/04/03 14:10:10;;;;;;;5.40;2.50;;;;;;;13.72;77.86;99745.76;213238;1297;139445;-81
2024/04/03 14:15:11;;;;;;;4.30;2.20;;;;;;;13.62;77.46;99744.69;213511;1296;138470;-81
2024/04/03 14:20:11;;;;;;;4.30;2.60;;;;;;;13.49;77.75;99749.91;213409;1295;139908;-81
2024/04/03 14:25:11;;;;;;;3.90;2.00;;;;;;;13.43;76.77;99740.90;213722;1296;140529;-80
2024/04/03 14:30:13;;;;;;;3.70;2.20;;;;;;;13.22;76.48;99743.73;213793;1296;139353;-79
2024/04/03 14:35:13;;;;;;;8.60;2.40;;;;;;;13.18;77.72;99743.38;213486;1296;138129;-80
2024/04/03 14:40:14;;;;;;;5.30;3.40;;;;;;;13.12;78.46;99760.80;213070;1297;139965;-81
2024/04/03 14:45:14;;;;;;;4.40;2.50;;;;;;;13.09;79.09;99759.58;213707;1297;138060;-82
2024/04/03 14:50:15;;;;;;;5.80;2.60;;;;;;;13.00;78.95;99754.83;213112;1297;140076;-81
2024/04/03 14:55:15;;;;;;;4.90;3.00;;;;;;;12.87;79.02;99756.28;213517;1297;100244;-81
2024/04/03 15:00:18;;;;;;;3.50;2.20;;;;;;;12.74;78.53;99758.36;212972;1295;138974;-81
2024/04/03 15:05:19;;;;;;;4.50;2.30;;;;;;;12.60;78.70;99759.25;213645;1295;138086;-81
2024/04/03 15:10:20;;;;;;;4.70;2.50;;;;;;;12.42;79.00;99761.36;213168;1296;139781;-82
2024/04/03 15:15:20;;;;;;;4.60;3.20;;;;;;;12.33;80.30;99764.75;213739;1297;138020;-81
2024/04/03 15:20:21;;;;;;;4.90;3.20;;;;;;;12.29;81.65;99769.12;213105;1297;139615;-81
2024/04/03 15:25:22;;;;;;;4.40;2.60;;;;;;;12.23;80.68;99774.73;214049;1296;98811;-81
2024/04/03 15:30:22;;;;;;;5.60;3.10;;;;;;;12.15;81.76;99780.93;212932;1297;140250;-81
2024/04/03 15:35:25;;;;;;;7.10;4.00;;;;;;;12.18;82.60;99785.10;213678;1297;139224;-81
2024/04/03 15:40:25;;;;;;;5.80;5.00;;;;;;;12.19;83.40;99785.40;213189;1297;140593;-81
2024/04/03 15:45:25;;;;;;;3.20;2.10;;;;;;;12.21;83.49;99789.57;213560;1297;138785;-81
2024/04/03 15:50:26;;;;;;;4.30;2.60;;;;;;;12.20;82.34;99797.15;213044;1297;140137;-81
2024/04/03 15:55:26;;;;;;;6.60;3.90;;;;;;;12.15;83.98;99800.26;214166;1300;98896;-81
2024/04/03 16:00:27;;;;;;;8.10;6.10;;;;;;;12.16;84.33;99801.44;213214;1297;140260;-81
2024/04/03 16:05:27;;;;;;;8.80;3.60;;;;;;;12.17;84.33;99804.89;213662;1297;138902;-81
2024/04/03 16:10:28;;;;;;;8.10;4.00;;;;;;;12.12;84.26;99810.89;213122;1300;140179;-81
2024/04/03 16:15:28;;;;;;;9.10;6.20;;;;;;;12.11;85.11;99816.02;213526;1295;140202;-81
2024/04/03 16:20:29;;;;;;;7.00;3.70;;;;;;;12.04;84.07;99818.42;213452;1297;140714;-81
2024/04/03 16:25:29;;;;;;;8.50;3.30;;;;;;;11.95;84.55;99822.24;213907;1297;99107;-81
2024/04/03 16:30:29;;;;;;;6.30;4.10;;;;;;;11.89;84.58;99826.92;213102;1297;140708;-81
2024/04/03 16:35:30;;;;;;;7.50;4.90;;;;;;;11.87;85.58;99831.89;214285;1296;138762;-81
2024/04/03 16:40:30;;;;;;;7.90;5.20;;;;;;;11.88;85.73;99834.73;214041;1297;140719;-81
2024/04/03 16:45:30;;;;;;;10.30;5.60;;;;;;;11.89;87.16;99840.16;214918;1296;138980;-81
2024/04/03 16:50:31;;;;;;;9.60;5.30;;;;;;;11.90;87.91;99842.13;214504;1296;140964;-81
2024/04/03 16:55:32;;;;;;;25.70;13.70;;;;;;;11.89;88.40;99847.33;214983;1295;99065;-81
2024/04/03 17:00:33;;;;;;;16.60;9.60;;;;;;;11.85;88.43;99854.11;213379;1295;140242;-81
2024/04/03 17:05:35;;;;;;;8.40;5.20;;;;;;;11.82;88.88;99858.70;213662;1298;139023;-81
2024/04/03 17:10:36;;;;;;;11.80;7.20;;;;;;;11.77;89.16;99862.41;213203;1296;140906;-81
2024/04/03 17:15:36;;;;;;;11.70;6.10;;;;;;;11.69;87.98;99869.76;214134;1297;139276;-81
2024/04/03 17:20:37;;;;;;;14.00;6.50;;;;;;;11.41;86.96;99883.07;212983;1300;140703;-81
2024/04/03 17:25:37;;;;;;;15.20;7.10;;;;;;;11.16;87.34;99883.80;213650;1297;100362;-81
2024/04/03 17:30:38;;;;;;;17.70;8.40;;;;;;;11.04;88.32;99893.23;212908;1297;141040;-81
2024/04/03 17:35:42;;;;;;;16.80;7.90;;;;;;;10.91;88.44;99898.42;213591;1298;138989;-81
2024/04/03 17:40:43;;;;;;;16.60;7.60;;;;;;;10.84;89.54;99901.95;213554;1297;141012;-81
2024/04/03 17:45:44;;;;;;;15.80;7.40;;;;;;;10.77;89.48;99909.10;213807;1296;138949;-81
2024/04/03 17:50:44;;;;;;;19.20;7.60;;;;;;;10.67;89.13;99914.59;213011;1298;140304;-80
2024/04/03 17:55:45;;;;;;;21.50;7.80;;;;;;;10.55;89.49;99920.60;213324;1297;99950;-81
2024/04/03 18:00:45;;;;;;;21.40;7.70;;;;;;;10.46;89.34;99929.30;213093;1298;140444;-81
2024/04/03 18:05:47;;;;;;;16.40;7.40;;;;;;;10.35;89.96;99933.27;213601;1297;138724;-81
2024/04/03 18:10:48;;;;;;;17.70;8.50;;;;;;;10.24;90.31;99937.06;213245;1297;141449;-81
2024/04/03 18:15:49;;;;;;;18.30;8.30;;;;;;;10.14;90.05;99942.29;213491;1297;138940;-82
2024/04/03 18:20:51;;;;;;;15.20;6.50;;;;;;;10.06;90.28;99948.52;212851;1296;141623;-83
2024/04/03 18:25:52;;;;;;;16.70;7.80;;;;;;;10.02;90.37;99958.61;213531;1300;99297;-83
2024/04/03 18:30:57;;;;;;;20.40;7.60;;;;;;;9.95;89.95;99966.81;212987;1297;140422;-83
2024/04/03 18:36:02;;;;;;;15.90;7.50;;;;;;;9.87;90.26;99969.98;213408;1297;138774;-83
2024/04/03 18:41:02;;;;;;;18.40;8.60;;;;;;;9.80;90.67;99972.14;212643;1300;140131;-83
2024/04/03 18:46:03;;;;;;;20.10;8.90;;;;;;;9.78;91.87;99980.05;213693;1296;138718;-83
2024/04/03 18:51:03;;;;;;;17.90;8.50;;;;;;;9.70;92.28;99980.61;213058;1300;141401;-83
2024/04/03 18:56:04;;;;;;;16.90;8.60;;;;;;;9.65;92.66;99987.02;213752;1297;99124;-81
2024/04/03 19:01:06;;;;;;;17.20;7.90;;;;;;;9.60;93.91;99985.73;212905;1297;140278;-81
2024/04/03 19:06:07;;;;;;;17.80;8.00;;;;;;;9.50;94.43;99993.73;213958;1297;138820;-80
2024/04/03 19:11:07;;;;;;;15.70;7.90;;;;;;;9.43;96.10;99994.23;212872;1300;139944;-80
2024/04/03 19:16:09;;;;;;;17.10;7.90;;;;;;;9.42;96.55;99993.50;212911;1296;138531;-79
2024/04/03 19:21:11;;;;;;;20.00;7.70;;;;;;;9.42;97.15;99996.02;212242;1300;141205;-79
2024/04/03 19:26:12;;;;;;;19.20;8.50;;;;;;;9.33;97.47;99992.09;214771;1297;98993;-80
2024/04/03 19:31:12;;;;;;;18.00;8.10;;;;;;;9.26;98.07;99994.85;214319;1297;141208;-80
2024/04/03 19:36:13;;;;;;;14.80;6.80;;;;;;;9.21;98.60;99993.55;213991;1295;138454;-81
2024/04/03 19:41:14;;;;;;;15.80;7.20;;;;;;;9.09;98.61;99994.52;212990;1299;140459;-81
2024/04/03 19:46:15;;;;;;;15.10;6.70;;;;;;;9.02;99.31;99992.98;213607;1298;138611;-81
2024/04/03 19:51:15;;;;;;;15.60;6.60;;;;;;;9.02;99.77;99993.67;212974;1300;140692;-81
2024/04/03 19:56:16;;;;;;;15.50;6.40;;;;;;;9.02;100.00;99994.70;213630;1295;138547;-80
2024/04/03 20:01:18;;;;;;;15.70;6.40;;;;;;;8.90;100.00;99996.53;213371;1296;139968;-81
2024/04/03 20:06:19;;;;;;;14.30;6.60;;;;;;;8.75;100.00;99998.79;213475;1300;138693;-81
2024/04/03 20:11:20;;;;;;;16.50;6.60;;;;;;;8.68;100.00;100003.88;213440;1298;141497;-82
2024/04/03 20:16:20;;;;;;;13.60;5.90;;;;;;;8.63;100.00;100007.89;213632;1297;139212;-81
2024/04/03 20:21:21;;;;;;;16.00;7.10;;;;;;;8.55;100.00;100004.73;213202;1298;140571;-81
2024/04/03 20:26:22;;;;;;;16.50;7.60;;;;;;;8.51;100.00;100005.95;213681;1298;138878;-82
2024/04/03 20:31:22;;;;;;;16.20;7.90;;;;;;;8.48;100.00;100006.70;213149;1297;140482;-81
2024/04/03 20:36:23;;;;;;;16.30;6.60;;;;;;;8.42;100.00;100005.05;213395;1299;139862;-81
2024/04/03 20:41:23;;;;;;;18.40;7.10;;;;;;;8.35;100.00;100008.57;213069;1298;140423;-82
2024/04/03 20:46:24;;;;;;;13.90;6.50;;;;;;;8.29;100.00;100008.87;213897;1298;139036;-82
2024/04/03 20:51:25;;;;;;;13.70;6.80;;;;;;;8.22;100.00;100009.94;213103;1298;140846;-81
2024/04/03 20:56:26;;;;;;;12.90;6.20;;;;;;;8.16;100.00;100000.97;213796;1298;138913;-81
2024/04/03 21:01:26;;;;;;;12.60;7.40;;;;;;;8.13;100.00;100001.41;213023;1297;140083;-81
2024/04/03 21:06:27;;;;;;;16.10;8.80;;;;;;;8.11;100.00;100003.90;213411;1300;139502;-80
2024/04/03 21:11:27;;;;;;;13.50;7.40;;;;;;;8.09;100.00;100007.38;212723;1298;141532;-81
2024/04/03 21:16:27;;;;;;;13.80;6.70;;;;;;;8.00;100.00;100013.60;212571;1298;138919;-81
2024/04/03 21:21:28;;;;;;;139.00;64.40;;;;;;;7.96;100.00;100016.84;211847;1300;140889;-81
2024/04/03 21:26:28;;;;;;;195.70;68.00;;;;;;;7.96;100.00;100020.36;212743;1299;139177;-81
2024/04/03 21:31:30;;;;;;;36.80;14.30;;;;;;;7.93;100.00;100025.33;212401;1300;142196;-81
2024/04/03 21:36:31;;;;;;;38.40;14.40;;;;;;;7.89;100.00;100024.86;212788;1300;138857;-80
2024/04/03 21:41:31;;;;;;;31.80;11.30;;;;;;;7.84;100.00;100025.71;212387;1300;141341;-83
2024/04/03 21:46:32;;;;;;;28.00;10.40;;;;;;;7.76;100.00;100029.36;213102;1296;139251;-81
2024/04/03 21:51:32;;;;;;;391.50;117.70;;;;;;;7.72;100.00;100028.50;211981;1295;141888;-80
2024/04/03 21:56:33;;;;;;;75.20;24.80;;;;;;;7.68;100.00;100024.61;212366;1297;139617;-81
2024/04/03 22:01:33;;;;;;;42.80;14.00;;;;;;;7.64;100.00;100024.95;211934;1296;141185;-80
2024/04/03 22:06:34;;;;;;;31.70;10.70;;;;;;;7.60;100.00;100028.88;212325;1296;139640;-81
2024/04/03 22:11:34;;;;;;;17.30;7.70;;;;;;;7.53;100.00;100027.56;211811;1296;141336;-82
2024/04/03 22:16:34;;;;;;;15.60;6.20;;;;;;;7.47;100.00;100030.52;213006;1300;138936;-82
2024/04/03 22:21:35;;;;;;;17.90;8.50;;;;;;;7.44;100.00;100035.16;213844;1297;142312;-82
2024/04/03 22:26:35;;;;;;;74.00;25.00;;;;;;;7.39;100.00;100031.09;214553;1300;139049;-81
2024/04/03 22:31:36;;;;;;;19.40;8.50;;;;;;;7.32;100.00;100033.54;213449;1298;140862;-81
2024/04/03 22:36:36;;;;;;;33.50;11.70;;;;;;;7.27;100.00;100040.27;213500;1298;138876;-82
2024/04/03 22:41:37;;;;;;;23.30;9.20;;;;;;;7.25;100.00;100041.23;213495;1296;141419;-82
2024/04/03 22:46:37;;;;;;;20.10;9.00;;;;;;;7.23;100.00;100042.45;213769;1297;139122;-82
2024/04/03 22:51:38;;;;;;;14.70;7.90;;;;;;;7.23;100.00;100040.27;213120;1297;142264;-81
2024/04/03 22:56:38;;;;;;;16.60;8.30;;;;;;;7.19;100.00;100037.30;213880;1296;139439;-82
2024/04/03 23:01:38;;;;;;;20.30;9.20;;;;;;;7.15;100.00;100034.18;214445;1300;140978;-82